LiveATC.Net - Listen to live air traffic control over the Internet!


ICAO: KDOV  IATA: DOV   Airport: Dover Air Force Base
City: Dover   State/Province: Delaware
Country: United States   Continent: North America
KDOV METAR Weather: KDOV 040208Z AUTO 21007KT 10SM +DZ FEW170 27/17 A2972 RMK AO2 RAB05E06DZB06 SLP067 $
KDOV Flight Activity (FlightAware)
KDOV Airport Info   (iFlightPlanner)
KDOV VFR Sectional Chart   (iFlightPlanner) 
KDOV IFR Low Chart   (iFlightPlanner) 

KDOV Approach/Departure
Feed Status: DOWN
Last heard on: 2020-05-25 22:23:05 (9 days 4 hours 17 minutes ago)
Archive Access: KDOV Approach/Departure
FacilityFrequency
Dover Approach/Departure132.425
Dover Approach/Departure257.875

NOTICE

Unauthorized use prohibited. See LiveATC.net Terms of Service


Airport/ARTCC Code
Frequency Search
(e.g., 124.400, 128.75)
Site-wide search
 


Browse Feeds
Top 50 Feeds
Coverage Map
Bad Weather Areas

LiveATC FAQ
Offer LiveATC feed
Contact LiveATC.net
Press Inquiries

LiveATC on iPhone
LiveATC on Android

Windows Phone
Windows 8/10

LiveATC Mobile
(Mobile browser)

ATC Audio Archives
Interesting Recordings

LiveATC Forums


Home Page
About LiveATC.net
Make a Donation
Terms of Use
Privacy Policy

Canadian Air Freqs

AIRMETs/SIGMETs

FAA Airport Status
Nat'l Airspace Status
Arrival Demand Charts


Server Software By:
Icecast.org
Liquidsoap